Mountain, North Dakota
Current Conditions -  °F | °C
As of 1:15 AM on Friday 31 Oct 2014 (Local Time) from K2C8 Reporting Station
Clear Clear  
Wind Chill: 15°   Ceiling: Unl
Heat Index: 21°   Visibility: 10mi
Dew Point: 16°   Wind: 5mph
Humidity: 80%   Direction: 350°N
Pressure: 30.61"   Gusts: NA
Location:  48.69°N, 97.87°W
Report Text: K2C8 310615Z AUTO 35004KT 10SM CLR M06/M09 A3061 RMK AO2
Loading
Personal Weather Stations






























Interactive Weather Map
Tropical Storm Tracking
New forecast layout! Learn more

10-Day Weather Forecast

Advertisements
Track Severe Weather on mobile